首页
METAR-TAF:

METAR-TAF

机场 :

Malcolm McKinnon Airport

布朗斯维克, 喬治亞, 美国

纬度: 31-09-06N, 经度: 081-23-29W, 海拔: 6米

当前天气观测

该预报发布于1小时和11分钟前的10:53 UTC
风速4节,风向西
温度 7°C
湿度 87%
气压 1019 hPa
能見度: 16.1公里
天空无云

METAR: KSSI 181053Z AUTO 27004KT 10SM CLR 07/05 A3008 RMK AO2 SLP187 T00670050

时间: 07:04 (12:04 UTC)

预报

该预报发布于44分钟前的11:20 UTC
预报有效从18日的 12点(UTC)到 19日的 12点(UTC)
风速5节,风向西
能見度: 10公里
天空无云
从 18日的 1400点(UTC)
风速5节,风向北转西北
能見度: 10公里
散云层高于25000英尺

TAF: KSSI 181120Z 1812/1912 27005KT P6SM SKC FM181400 33005KT P6SM SCT250

超过4000个机场的气象观测和天气预报(METAR&TAF报告)。

可查询的气象台以黄色和红色小点在地图上表示。

将鼠标移到小点上方,可查看气象台名称。

然后点击查看天气观测和预报。

如需切换地图:点击带黑十字的绿色按钮放大地图;点击带横线的绿色按钮缩小地图;或者点击绿色箭头查看邻近地区的地图。


METAR-TAF: